Villa Angelica, Puerto Rico
Current Conditions -  °F | °C
As of 11:50 PM on Thursday 30 Oct 2014 (Local Time) from TJBQ Reporting Station
Thunderstorm Thunderstorm  
Wind Chill: 72°   Ceiling: 9500
Heat Index: 72°   Visibility: 10mi
Dew Point: 66°   Wind: 9mph
Humidity: 83%   Direction: 130°SE
Pressure: 29.88"   Gusts: 16mph
Location:  18.2038°N, 67.1453°W
Report Text: TJBQ 310350Z 13008G14KT 10SM VCTS SCT028 BKN095 22/19 A2988 RMK LTG DSNT E-SE- RWY08 ATIS J
Loading
Personal Weather Stations






























Interactive Weather Map
Tropical Storm Tracking
New forecast layout! Learn more

10-Day Weather Forecast

Advertisements
Track Severe Weather on mobile